Terminal Aerodrome Forecast
Issued by NWS

Home | Current Version | Previous Version | Text Only | Print | Product List | Glossary Off
Versions: 1 2 3 4 5 6 7 8 9 10 11 12 13 14

000
FTUS43 KMPX 260400 AAA
TAFRNH
TAF AMD
KRNH 260427Z 2604/2624 29004KT P6SM SKC
      TEMPO 2605/2607 SCT045
     FM261500 33006KT P6SM SCT040 SCT250=

USA.gov is the U.S. government's official web portal to all federal, state and local government web resources and services.